Strona główna
METAR-TAF:

METAR-TAF

Lotnisko :

Livingston County Spencer J. Hardy Airport

Howell, Michigan, Stany Zjednoczone

Szerokość geograficzna: 42-37-46N, Długość geograficzna: 083-59-03W, wysokość: 293 m

Aktualna obserwacja pogody

Raport powstał 29 minut temu, godzina 02:35 UTC
Wiatr 3 kt od zachodnio-południowy zachód
Temperatura 23°C
Wilgotność 89%
Ciśnienie 1012 hPa
Widzialność: 16.1 km
bezchmurnie

METAR: KOZW 200235Z AUTO 25003KT 10SM CLR 23/21 A2987 RMK AO2 T02280210

czas: 23:04 (03:04 UTC)


TAF: brakujący

Obserwacja i prognoza pogody dla ponad 4000 lotnisk (raport METAR i TAF).

Dostępne stacje oznaczono żółtymi i czerwonymi punktami na mapie.

Najedź kursorem aby zobaczyć nazwę stacji.

Kliknij aby zobaczyć obserwacje i prognozy pogody.

Aby zmienić mapę: kliknij na zielony przycisk z czarnym krzyżykiem, aby powiększyć; na zielony przycisk z myślnikiem, aby pomniejszyć; na zielone strzałki, aby przejść do map sąsiednich.


METAR-TAF: